sensor_id;sensor_type;location;lat;lon;timestamp;P1;durP1;ratioP1;P2;durP2;ratioP2
20161;SDS011;51382;53.180;15.414;2024-02-26T00:11:07;19.50;;;3.50;;
20161;SDS011;51382;53.180;15.414;2024-02-26T00:26:16;19.10;;;3.70;;
20161;SDS011;51382;53.180;15.414;2024-02-26T00:41:25;47.10;;;6.70;;
20161;SDS011;51382;53.180;15.414;2024-02-26T00:56:33;47.80;;;6.10;;
20161;SDS011;51382;53.180;15.414;2024-02-26T01:11:43;46.60;;;5.80;;
20161;SDS011;51382;53.180;15.414;2024-02-26T01:26:46;44.90;;;4.60;;
20161;SDS011;51382;53.180;15.414;2024-02-26T01:41:55;42.30;;;4.50;;
20161;SDS011;51382;53.180;15.414;2024-02-26T01:57:04;38.90;;;5.60;;
20161;SDS011;51382;53.180;15.414;2024-02-26T02:12:09;41.30;;;5.80;;
20161;SDS011;51382;53.180;15.414;2024-02-26T02:27:18;32.30;;;3.70;;
20161;SDS011;51382;53.180;15.414;2024-02-26T02:42:27;41.80;;;6.20;;
20161;SDS011;51382;53.180;15.414;2024-02-26T02:57:35;37.20;;;5.90;;
20161;SDS011;51382;53.180;15.414;2024-02-26T03:12:49;38.70;;;6.40;;
20161;SDS011;51382;53.180;15.414;2024-02-26T03:27:58;54.50;;;8.50;;
20161;SDS011;51382;53.180;15.414;2024-02-26T03:43:06;59.30;;;8.10;;
20161;SDS011;51382;53.180;15.414;2024-02-26T03:58:13;43.20;;;7.90;;
20161;SDS011;51382;53.180;15.414;2024-02-26T04:13:22;45.70;;;8.30;;
20161;SDS011;51382;53.180;15.414;2024-02-26T04:28:30;51.10;;;9.90;;
20161;SDS011;51382;53.180;15.414;2024-02-26T04:43:39;65.50;;;9.50;;
20161;SDS011;51382;53.180;15.414;2024-02-26T04:58:49;43.10;;;7.70;;
20161;SDS011;51382;53.180;15.414;2024-02-26T05:13:58;39.30;;;7.80;;
20161;SDS011;51382;53.180;15.414;2024-02-26T05:29:07;59.20;;;12.30;;
20161;SDS011;51382;53.180;15.414;2024-02-26T05:44:12;53.90;;;10.20;;
20161;SDS011;51382;53.180;15.414;2024-02-26T05:59:21;52.10;;;10.90;;
20161;SDS011;51382;53.180;15.414;2024-02-26T06:14:30;71.60;;;16.80;;
20161;SDS011;51382;53.180;15.414;2024-02-26T06:29:34;50.00;;;11.70;;
20161;SDS011;51382;53.180;15.414;2024-02-26T06:44:42;100.30;;;22.20;;
20161;SDS011;51382;53.180;15.414;2024-02-26T06:59:51;56.40;;;18.50;;
20161;SDS011;51382;53.180;15.414;2024-02-26T07:15:01;71.40;;;17.90;;
20161;SDS011;51382;53.180;15.414;2024-02-26T07:30:08;25.30;;;10.20;;
20161;SDS011;51382;53.180;15.414;2024-02-26T07:45:13;51.00;;;12.50;;
20161;SDS011;51382;53.180;15.414;2024-02-26T08:00:23;48.60;;;12.50;;
20161;SDS011;51382;53.180;15.414;2024-02-26T08:15:32;46.50;;;13.70;;
20161;SDS011;51382;53.180;15.414;2024-02-26T08:30:42;47.00;;;17.80;;
20161;SDS011;51382;53.180;15.414;2024-02-26T08:45:50;56.60;;;18.50;;
20161;SDS011;51382;53.180;15.414;2024-02-26T09:00:59;55.00;;;17.50;;
20161;SDS011;51382;53.180;15.414;2024-02-26T09:16:08;58.30;;;24.40;;
20161;SDS011;51382;53.180;15.414;2024-02-26T09:31:18;56.80;;;21.90;;
20161;SDS011;51382;53.180;15.414;2024-02-26T09:46:27;73.40;;;21.50;;
20161;SDS011;51382;53.180;15.414;2024-02-26T10:01:36;76.60;;;23.80;;
20161;SDS011;51382;53.180;15.414;2024-02-26T10:16:42;53.70;;;17.50;;
20161;SDS011;51382;53.180;15.414;2024-02-26T10:31:51;63.80;;;18.90;;
20161;SDS011;51382;53.180;15.414;2024-02-26T10:47:00;50.40;;;16.10;;
20161;SDS011;51382;53.180;15.414;2024-02-26T11:02:10;39.70;;;12.20;;
20161;SDS011;51382;53.180;15.414;2024-02-26T11:17:20;47.50;;;12.30;;
20161;SDS011;51382;53.180;15.414;2024-02-26T11:32:30;44.20;;;9.50;;
20161;SDS011;51382;53.180;15.414;2024-02-26T11:47:39;51.40;;;16.30;;
20161;SDS011;51382;53.180;15.414;2024-02-26T12:02:50;51.90;;;9.50;;
20161;SDS011;51382;53.180;15.414;2024-02-26T12:18:07;49.40;;;8.00;;
20161;SDS011;51382;53.180;15.414;2024-02-26T12:33:18;51.40;;;8.10;;
20161;SDS011;51382;53.180;15.414;2024-02-26T12:48:26;42.90;;;7.90;;
20161;SDS011;51382;53.180;15.414;2024-02-26T13:03:36;48.90;;;8.40;;
20161;SDS011;51382;53.180;15.414;2024-02-26T13:18:44;52.80;;;8.20;;
20161;SDS011;51382;53.180;15.414;2024-02-26T13:33:56;48.10;;;7.40;;
20161;SDS011;51382;53.180;15.414;2024-02-26T13:49:08;42.10;;;7.50;;
20161;SDS011;51382;53.180;15.414;2024-02-26T14:04:16;50.30;;;8.80;;
20161;SDS011;51382;53.180;15.414;2024-02-26T14:19:26;44.00;;;7.60;;
20161;SDS011;51382;53.180;15.414;2024-02-26T14:34:35;28.20;;;6.50;;
20161;SDS011;51382;53.180;15.414;2024-02-26T14:49:44;48.40;;;10.30;;
20161;SDS011;51382;53.180;15.414;2024-02-26T15:04:55;55.90;;;8.90;;
20161;SDS011;51382;53.180;15.414;2024-02-26T15:20:06;70.30;;;19.00;;
20161;SDS011;51382;53.180;15.414;2024-02-26T15:35:17;58.80;;;11.50;;
20161;SDS011;51382;53.180;15.414;2024-02-26T15:50:26;81.60;;;17.10;;
20161;SDS011;51382;53.180;15.414;2024-02-26T16:05:35;65.20;;;12.40;;
20161;SDS011;51382;53.180;15.414;2024-02-26T16:20:44;70.10;;;15.80;;
20161;SDS011;51382;53.180;15.414;2024-02-26T16:35:53;78.40;;;14.70;;
20161;SDS011;51382;53.180;15.414;2024-02-26T16:51:04;54.20;;;12.50;;
20161;SDS011;51382;53.180;15.414;2024-02-26T17:06:12;49.20;;;10.80;;
20161;SDS011;51382;53.180;15.414;2024-02-26T17:21:23;58.30;;;11.00;;
20161;SDS011;51382;53.180;15.414;2024-02-26T17:36:31;46.80;;;8.80;;
20161;SDS011;51382;53.180;15.414;2024-02-26T17:51:40;54.70;;;12.00;;
20161;SDS011;51382;53.180;15.414;2024-02-26T18:06:46;69.70;;;17.70;;
20161;SDS011;51382;53.180;15.414;2024-02-26T18:21:55;43.30;;;12.50;;
20161;SDS011;51382;53.180;15.414;2024-02-26T18:37:04;45.40;;;11.10;;
20161;SDS011;51382;53.180;15.414;2024-02-26T18:52:14;50.10;;;11.90;;
20161;SDS011;51382;53.180;15.414;2024-02-26T19:07:26;41.20;;;11.80;;
20161;SDS011;51382;53.180;15.414;2024-02-26T19:22:35;66.50;;;16.70;;
20161;SDS011;51382;53.180;15.414;2024-02-26T19:37:52;69.20;;;14.90;;
20161;SDS011;51382;53.180;15.414;2024-02-26T19:53:00;67.00;;;17.30;;
20161;SDS011;51382;53.180;15.414;2024-02-26T20:08:09;57.30;;;15.10;;
20161;SDS011;51382;53.180;15.414;2024-02-26T20:23:17;49.10;;;10.50;;
20161;SDS011;51382;53.180;15.414;2024-02-26T20:38:26;64.40;;;12.90;;
20161;SDS011;51382;53.180;15.414;2024-02-26T20:53:35;48.70;;;10.90;;
20161;SDS011;51382;53.180;15.414;2024-02-26T21:08:44;56.70;;;15.60;;
20161;SDS011;51382;53.180;15.414;2024-02-26T21:23:48;47.60;;;11.10;;
20161;SDS011;51382;53.180;15.414;2024-02-26T21:38:57;59.20;;;12.20;;
20161;SDS011;51382;53.180;15.414;2024-02-26T21:54:06;57.20;;;10.00;;
20161;SDS011;51382;53.180;15.414;2024-02-26T22:09:15;59.80;;;10.40;;
20161;SDS011;51382;53.180;15.414;2024-02-26T22:24:23;46.50;;;10.80;;
20161;SDS011;51382;53.180;15.414;2024-02-26T22:39:32;43.60;;;10.00;;
20161;SDS011;51382;53.180;15.414;2024-02-26T22:54:40;42.10;;;10.90;;
20161;SDS011;51382;53.180;15.414;2024-02-26T23:09:49;46.90;;;11.60;;
20161;SDS011;51382;53.180;15.414;2024-02-26T23:24:57;50.80;;;12.30;;
20161;SDS011;51382;53.180;15.414;2024-02-26T23:40:08;55.70;;;11.70;;
20161;SDS011;51382;53.180;15.414;2024-02-26T23:55:18;45.00;;;10.10;;
